sensor_id;sensor_type;location;lat;lon;timestamp;pressure;altitude;pressure_sealevel;temperature;humidity
76404;BME280;65232;48.358;2.122;2023-06-10T00:00:15;100194.06;;;20.68;69.93
76404;BME280;65232;48.358;2.122;2023-06-10T00:00:42;100189.03;;;20.58;69.64
76404;BME280;65232;48.358;2.122;2023-06-10T00:01:07;100191.94;;;20.63;69.36
76404;BME280;65232;48.358;2.122;2023-06-10T00:01:32;100188.38;;;20.50;70.02
76404;BME280;65232;48.358;2.122;2023-06-10T00:02:01;100189.00;;;20.45;70.19
76404;BME280;65232;48.358;2.122;2023-06-10T00:02:27;100189.22;;;20.44;70.20
76404;BME280;65232;48.358;2.122;2023-06-10T00:02:52;100187.13;;;20.46;70.42
76404;BME280;65232;48.358;2.122;2023-06-10T00:03:18;100189.22;;;20.44;70.05
76404;BME280;65232;48.358;2.122;2023-06-10T00:03:43;100195.91;;;20.48;70.23
76404;BME280;65232;48.358;2.122;2023-06-10T00:04:09;100193.81;;;20.50;70.75
76404;BME280;65232;48.358;2.122;2023-06-10T00:04:34;100186.94;;;20.47;70.63
76404;BME280;65232;48.358;2.122;2023-06-10T00:05:02;100192.97;;;20.42;70.69
76404;BME280;65232;48.358;2.122;2023-06-10T00:05:27;100189.41;;;20.42;71.08
76404;BME280;65232;48.358;2.122;2023-06-10T00:05:55;100196.66;;;20.35;71.09
76404;BME280;65232;48.358;2.122;2023-06-10T00:06:20;100199.59;;;20.33;71.36
76404;BME280;65232;48.358;2.122;2023-06-10T00:06:49;100201.91;;;20.30;71.02
76404;BME280;65232;48.358;2.122;2023-06-10T00:07:14;100191.84;;;20.24;71.34
76404;BME280;65232;48.358;2.122;2023-06-10T00:07:40;100197.06;;;20.25;71.37
76404;BME280;65232;48.358;2.122;2023-06-10T00:08:06;100198.97;;;20.31;71.23
76404;BME280;65232;48.358;2.122;2023-06-10T00:08:32;100200.88;;;20.31;71.54
76404;BME280;65232;48.358;2.122;2023-06-10T00:08:58;100197.50;;;20.29;71.11
76404;BME280;65232;48.358;2.122;2023-06-10T00:09:24;100199.59;;;20.27;71.70
76404;BME280;65232;48.358;2.122;2023-06-10T00:09:49;100200.84;;;20.24;71.07
76404;BME280;65232;48.358;2.122;2023-06-10T00:10:16;100199.34;;;20.22;71.26
76404;BME280;65232;48.358;2.122;2023-06-10T00:10:41;100204.16;;;20.20;71.66
76404;BME280;65232;48.358;2.122;2023-06-10T00:11:07;100198.94;;;20.25;71.13
76404;BME280;65232;48.358;2.122;2023-06-10T00:11:32;100200.44;;;20.27;71.36
76404;BME280;65232;48.358;2.122;2023-06-10T00:11:58;100199.78;;;20.25;71.51
76404;BME280;65232;48.358;2.122;2023-06-10T00:12:25;100206.47;;;20.23;71.73
76404;BME280;65232;48.358;2.122;2023-06-10T00:12:51;100209.38;;;20.21;71.40
76404;BME280;65232;48.358;2.122;2023-06-10T00:13:16;100212.94;;;20.15;71.86
76404;BME280;65232;48.358;2.122;2023-06-10T00:13:42;100205.84;;;20.21;71.24
76404;BME280;65232;48.358;2.122;2023-06-10T00:14:08;100211.25;;;20.21;71.54
76404;BME280;65232;48.358;2.122;2023-06-10T00:14:34;100213.16;;;20.20;71.47
76404;BME280;65232;48.358;2.122;2023-06-10T00:15:00;100208.75;;;20.19;71.66
76404;BME280;65232;48.358;2.122;2023-06-10T00:15:25;100201.63;;;20.18;71.68
76404;BME280;65232;48.358;2.122;2023-06-10T00:15:51;100211.50;;;20.26;71.20
76404;BME280;65232;48.358;2.122;2023-06-10T00:16:16;100206.88;;;20.20;71.31
76404;BME280;65232;48.358;2.122;2023-06-10T00:16:43;100201.63;;;20.18;71.74
76404;BME280;65232;48.358;2.122;2023-06-10T00:17:10;100208.75;;;20.19;71.66
76404;BME280;65232;48.358;2.122;2023-06-10T00:17:35;100211.66;;;20.11;71.67
76404;BME280;65232;48.358;2.122;2023-06-10T00:18:04;100206.03;;;20.19;71.79
76404;BME280;65232;48.358;2.122;2023-06-10T00:18:30;100210.44;;;20.20;71.24
76404;BME280;65232;48.358;2.122;2023-06-10T00:18:56;100210.44;;;20.20;71.60
76404;BME280;65232;48.358;2.122;2023-06-10T00:19:26;100205.00;;;20.20;71.16
76404;BME280;65232;48.358;2.122;2023-06-10T00:19:55;100208.53;;;20.21;71.36
76404;BME280;65232;48.358;2.122;2023-06-10T00:20:21;100205.81;;;20.14;71.39
76404;BME280;65232;48.358;2.122;2023-06-10T00:20:50;100207.69;;;20.14;71.92
76404;BME280;65232;48.358;2.122;2023-06-10T00:21:18;100208.34;;;20.16;71.79
76404;BME280;65232;48.358;2.122;2023-06-10T00:21:44;100206.63;;;20.08;72.01
76404;BME280;65232;48.358;2.122;2023-06-10T00:22:09;100209.34;;;20.08;72.44
76404;BME280;65232;48.358;2.122;2023-06-10T00:22:35;100208.69;;;20.06;72.33
76404;BME280;65232;48.358;2.122;2023-06-10T00:23:01;100214.97;;;20.00;72.26
76404;BME280;65232;48.358;2.122;2023-06-10T00:23:26;100216.66;;;20.01;72.32
76404;BME280;65232;48.358;2.122;2023-06-10T00:23:56;100209.69;;;19.92;72.57
76404;BME280;65232;48.358;2.122;2023-06-10T00:24:21;100210.94;;;19.89;72.89
76404;BME280;65232;48.358;2.122;2023-06-10T00:24:47;100204.66;;;19.89;72.82
76404;BME280;65232;48.358;2.122;2023-06-10T00:25:12;100208.22;;;19.89;72.63
76404;BME280;65232;48.358;2.122;2023-06-10T00:25:38;100206.13;;;19.91;72.70
76404;BME280;65232;48.358;2.122;2023-06-10T00:26:04;100204.91;;;19.94;72.59
76404;BME280;65232;48.358;2.122;2023-06-10T00:26:29;100208.44;;;19.94;72.82
76404;BME280;65232;48.358;2.122;2023-06-10T00:27:03;100208.44;;;19.88;72.91
76404;BME280;65232;48.358;2.122;2023-06-10T00:27:28;100206.75;;;19.87;72.65
76404;BME280;65232;48.358;2.122;2023-06-10T00:27:56;100206.34;;;19.90;73.21
76404;BME280;65232;48.358;2.122;2023-06-10T00:28:21;100213.81;;;19.81;73.23
76404;BME280;65232;48.358;2.122;2023-06-10T00:28:48;100200.25;;;19.81;73.44
76404;BME280;65232;48.358;2.122;2023-06-10T00:29:13;100206.13;;;19.85;73.46
76404;BME280;65232;48.358;2.122;2023-06-10T00:29:39;100203.38;;;19.78;73.28
76404;BME280;65232;48.358;2.122;2023-06-10T00:30:07;100207.94;;;19.78;73.39
76404;BME280;65232;48.358;2.122;2023-06-10T00:30:33;100207.31;;;19.76;73.73
76404;BME280;65232;48.358;2.122;2023-06-10T00:30:58;100205.88;;;19.80;73.42
76404;BME280;65232;48.358;2.122;2023-06-10T00:31:24;100205.25;;;19.78;73.96
76404;BME280;65232;48.358;2.122;2023-06-10T00:31:51;100201.34;;;19.87;73.14
76404;BME280;65232;48.358;2.122;2023-06-10T00:32:18;100204.00;;;19.80;73.42
76404;BME280;65232;48.358;2.122;2023-06-10T00:32:44;100205.25;;;19.78;74.00
76404;BME280;65232;48.358;2.122;2023-06-10T00:33:09;100198.31;;;19.75;74.11
76404;BME280;65232;48.358;2.122;2023-06-10T00:33:35;100206.47;;;19.75;74.23
76404;BME280;65232;48.358;2.122;2023-06-10T00:34:01;100205.69;;;19.81;73.85
76404;BME280;65232;48.358;2.122;2023-06-10T00:34:27;100203.38;;;19.78;73.43
76404;BME280;65232;48.358;2.122;2023-06-10T00:34:52;100204.44;;;19.84;73.45
76404;BME280;65232;48.358;2.122;2023-06-10T00:35:18;100206.38;;;19.96;72.81
76404;BME280;65232;48.358;2.122;2023-06-10T00:35:43;100203.63;;;19.90;73.16
76404;BME280;65232;48.358;2.122;2023-06-10T00:36:09;100209.28;;;19.95;73.01
76404;BME280;65232;48.358;2.122;2023-06-10T00:36:34;100204.06;;;19.93;73.07
76404;BME280;65232;48.358;2.122;2023-06-10T00:37:01;100210.72;;;19.84;73.19
76404;BME280;65232;48.358;2.122;2023-06-10T00:37:26;100211.31;;;19.80;73.51
76404;BME280;65232;48.358;2.122;2023-06-10T00:37:53;100202.72;;;19.69;74.01
76404;BME280;65232;48.358;2.122;2023-06-10T00:38:19;100209.38;;;19.67;74.48
76404;BME280;65232;48.358;2.122;2023-06-10T00:38:44;100200.00;;;19.69;73.94
76404;BME280;65232;48.358;2.122;2023-06-10T00:39:10;100209.97;;;19.62;74.58
76404;BME280;65232;48.358;2.122;2023-06-10T00:39:35;100208.09;;;19.63;74.29
76404;BME280;65232;48.358;2.122;2023-06-10T00:40:04;100210.78;;;19.56;74.46
76404;BME280;65232;48.358;2.122;2023-06-10T00:40:33;100210.59;;;19.58;74.52
76404;BME280;65232;48.358;2.122;2023-06-10T00:41:03;100207.88;;;19.58;74.58
76404;BME280;65232;48.358;2.122;2023-06-10T00:41:29;100204.50;;;19.56;74.75
76404;BME280;65232;48.358;2.122;2023-06-10T00:41:55;100204.72;;;19.61;74.66
76404;BME280;65232;48.358;2.122;2023-06-10T00:42:21;100204.78;;;19.67;74.55
76404;BME280;65232;48.358;2.122;2023-06-10T00:42:49;100208.34;;;19.68;74.37
76404;BME280;65232;48.358;2.122;2023-06-10T00:43:14;100212.72;;;19.69;74.12
76404;BME280;65232;48.358;2.122;2023-06-10T00:43:40;100207.50;;;19.67;73.99
76404;BME280;65232;48.358;2.122;2023-06-10T00:44:05;100205.25;;;19.78;73.54
76404;BME280;65232;48.358;2.122;2023-06-10T00:44:30;100209.06;;;19.90;73.20
76404;BME280;65232;48.358;2.122;2023-06-10T00:44:56;100203.59;;;19.83;73.15
76404;BME280;65232;48.358;2.122;2023-06-10T00:45:21;100208.78;;;19.78;73.72
76404;BME280;65232;48.358;2.122;2023-06-10T00:45:47;100205.50;;;19.89;73.31
76404;BME280;65232;48.358;2.122;2023-06-10T00:46:13;100212.59;;;19.84;73.52
76404;BME280;65232;48.358;2.122;2023-06-10T00:46:39;100210.28;;;19.81;73.52
76404;BME280;65232;48.358;2.122;2023-06-10T00:47:05;100208.22;;;19.89;73.23
76404;BME280;65232;48.358;2.122;2023-06-10T00:47:31;100215.31;;;19.84;73.65
76404;BME280;65232;48.358;2.122;2023-06-10T00:47:56;100210.66;;;19.78;73.49
76404;BME280;65232;48.358;2.122;2023-06-10T00:48:23;100214.91;;;19.87;73.21
76404;BME280;65232;48.358;2.122;2023-06-10T00:48:50;100212.41;;;19.92;73.13
76404;BME280;65232;48.358;2.122;2023-06-10T00:49:15;100205.09;;;19.86;73.24
76404;BME280;65232;48.358;2.122;2023-06-10T00:49:42;100204.00;;;19.80;73.25
76404;BME280;65232;48.358;2.122;2023-06-10T00:50:08;100210.03;;;19.76;73.77
76404;BME280;65232;48.358;2.122;2023-06-10T00:50:33;100210.84;;;19.69;73.89
76404;BME280;65232;48.358;2.122;2023-06-10T00:50:59;100214.75;;;19.60;73.71
76404;BME280;65232;48.358;2.122;2023-06-10T00:51:26;100217.25;;;19.62;74.03
76404;BME280;65232;48.358;2.122;2023-06-10T00:51:52;100210.16;;;19.61;74.13
76404;BME280;65232;48.358;2.122;2023-06-10T00:52:18;100211.88;;;19.68;73.85
76404;BME280;65232;48.358;2.122;2023-06-10T00:52:47;100208.56;;;19.73;73.84
76404;BME280;65232;48.358;2.122;2023-06-10T00:53:13;100210.22;;;19.67;74.06
76404;BME280;65232;48.358;2.122;2023-06-10T00:53:40;100208.34;;;19.68;74.23
76404;BME280;65232;48.358;2.122;2023-06-10T00:54:07;100213.78;;;19.75;73.19
76404;BME280;65232;48.358;2.122;2023-06-10T00:54:33;100206.47;;;19.68;73.56
76404;BME280;65232;48.358;2.122;2023-06-10T00:54:59;100212.84;;;19.54;74.42
76404;BME280;65232;48.358;2.122;2023-06-10T00:55:24;100201.47;;;19.44;74.49
76404;BME280;65232;48.358;2.122;2023-06-10T00:55:52;100209.50;;;19.31;75.13
76404;BME280;65232;48.358;2.122;2023-06-10T00:56:18;100206.97;;;19.23;75.38
76404;BME280;65232;48.358;2.122;2023-06-10T00:56:44;100202.97;;;19.19;75.63
76404;BME280;65232;48.358;2.122;2023-06-10T00:57:09;100204.38;;;19.15;75.83
76404;BME280;65232;48.358;2.122;2023-06-10T00:57:35;100210.91;;;19.20;75.69
76404;BME280;65232;48.358;2.122;2023-06-10T00:58:03;100201.66;;;19.15;75.73
76404;BME280;65232;48.358;2.122;2023-06-10T00:58:29;100205.00;;;19.10;75.93
76404;BME280;65232;48.358;2.122;2023-06-10T00:58:55;100203.97;;;19.11;75.93
76404;BME280;65232;48.358;2.122;2023-06-10T00:59:20;100203.31;;;19.09;76.10
76404;BME280;65232;48.358;2.122;2023-06-10T00:59:48;100204.63;;;19.13;75.72
76404;BME280;65232;48.358;2.122;2023-06-10T01:00:15;100205.22;;;19.15;76.21
76404;BME280;65232;48.358;2.122;2023-06-10T01:00:41;100198.09;;;19.08;76.12
76404;BME280;65232;48.358;2.122;2023-06-10T01:01:06;100201.06;;;19.13;76.13
76404;BME280;65232;48.358;2.122;2023-06-10T01:01:32;100203.78;;;19.13;76.47
76404;BME280;65232;48.358;2.122;2023-06-10T01:02:01;100204.00;;;19.18;75.75
76404;BME280;65232;48.358;2.122;2023-06-10T01:02:29;100201.91;;;19.13;76.19
76404;BME280;65232;48.358;2.122;2023-06-10T01:02:57;100205.03;;;19.17;75.98
76404;BME280;65232;48.358;2.122;2023-06-10T01:03:22;100216.53;;;19.19;76.32
76404;BME280;65232;48.358;2.122;2023-06-10T01:03:48;100209.88;;;19.21;75.89
76404;BME280;65232;48.358;2.122;2023-06-10T01:04:13;100205.28;;;19.22;75.89
76404;BME280;65232;48.358;2.122;2023-06-10T01:04:39;100201.94;;;19.20;75.96
76404;BME280;65232;48.358;2.122;2023-06-10T01:05:05;100203.25;;;19.30;75.86
76404;BME280;65232;48.358;2.122;2023-06-10T01:05:31;100204.91;;;19.25;75.79
76404;BME280;65232;48.358;2.122;2023-06-10T01:06:14;100202.22;;;19.31;75.57
76404;BME280;65232;48.358;2.122;2023-06-10T01:07:25;100199.88;;;19.22;75.76
76404;BME280;65232;48.358;2.122;2023-06-10T01:08:03;100196.50;;;19.20;76.14
76404;BME280;65232;48.358;2.122;2023-06-10T01:08:33;100204.00;;;19.18;75.89
76404;BME280;65232;48.358;2.122;2023-06-10T01:09:56;100197.50;;;19.12;76.33
76404;BME280;65232;48.358;2.122;2023-06-10T01:10:47;100205.66;;;19.12;76.29
76404;BME280;65232;48.358;2.122;2023-06-10T01:11:20;100201.44;;;19.10;76.02
76404;BME280;65232;48.358;2.122;2023-06-10T01:11:53;100204.53;;;19.07;75.95
76404;BME280;65232;48.358;2.122;2023-06-10T01:13:01;100205.75;;;18.97;75.94
76404;BME280;65232;48.358;2.122;2023-06-10T01:13:32;100211.78;;;18.99;76.00
76404;BME280;65232;48.358;2.122;2023-06-10T01:14:00;100207.66;;;19.03;75.68
76404;BME280;65232;48.358;2.122;2023-06-10T01:14:27;100203.78;;;19.13;75.53
76404;BME280;65232;48.358;2.122;2023-06-10T01:14:53;100203.34;;;19.16;75.26
76404;BME280;65232;48.358;2.122;2023-06-10T01:15:19;100212.09;;;19.11;75.54
76404;BME280;65232;48.358;2.122;2023-06-10T01:15:45;100208.88;;;19.01;75.87
76404;BME280;65232;48.358;2.122;2023-06-10T01:16:11;100211.47;;;19.09;75.58
76404;BME280;65232;48.358;2.122;2023-06-10T01:16:38;100209.38;;;19.11;75.38
76404;BME280;65232;48.358;2.122;2023-06-10T01:17:06;100206.81;;;19.03;75.85
76404;BME280;65232;48.358;2.122;2023-06-10T01:17:52;100212.56;;;18.93;76.41
76404;BME280;65232;48.358;2.122;2023-06-10T01:18:18;100220.25;;;18.90;76.45
76404;BME280;65232;48.358;2.122;2023-06-10T01:18:44;100227.06;;;18.79;76.99
76404;BME280;65232;48.358;2.122;2023-06-10T01:19:11;100225.84;;;18.82;77.00
76404;BME280;65232;48.358;2.122;2023-06-10T01:19:38;100231.06;;;18.83;77.23
76404;BME280;65232;48.358;2.122;2023-06-10T01:20:04;100224.16;;;18.81;77.23
76404;BME280;65232;48.358;2.122;2023-06-10T01:20:30;100223.44;;;18.93;76.85
76404;BME280;65232;48.358;2.122;2023-06-10T01:20:57;100223.34;;;18.87;76.63
76404;BME280;65232;48.358;2.122;2023-06-10T01:21:23;100231.63;;;18.79;77.07
76404;BME280;65232;48.358;2.122;2023-06-10T01:21:51;100228.72;;;18.80;76.76
76404;BME280;65232;48.358;2.122;2023-06-10T01:22:17;100227.06;;;18.79;76.90
76404;BME280;65232;48.358;2.122;2023-06-10T01:22:43;100225.75;;;18.75;77.44
76404;BME280;65232;48.358;2.122;2023-06-10T01:23:10;100226.56;;;18.69;77.21
76404;BME280;65232;48.358;2.122;2023-06-10T01:23:36;100229.63;;;18.66;77.49
76404;BME280;65232;48.358;2.122;2023-06-10T01:24:02;100230.09;;;18.70;77.45
76404;BME280;65232;48.358;2.122;2023-06-10T01:24:28;100226.31;;;18.71;77.34
76404;BME280;65232;48.358;2.122;2023-06-10T01:24:56;100226.78;;;18.74;77.48
76404;BME280;65232;48.358;2.122;2023-06-10T01:25:24;100228.28;;;18.77;77.17
76404;BME280;65232;48.358;2.122;2023-06-10T01:25:59;100229.13;;;18.77;77.20
76404;BME280;65232;48.358;2.122;2023-06-10T01:26:30;100240.59;;;18.79;77.17
76404;BME280;65232;48.358;2.122;2023-06-10T01:27:00;100234.47;;;18.71;77.43
76404;BME280;65232;48.358;2.122;2023-06-10T01:27:33;100231.75;;;18.71;77.52
76404;BME280;65232;48.358;2.122;2023-06-10T01:28:14;100234.72;;;18.76;77.47
76404;BME280;65232;48.358;2.122;2023-06-10T01:28:56;100237.09;;;18.85;76.92
76404;BME280;65232;48.358;2.122;2023-06-10T01:29:33;100233.50;;;18.78;77.65
76404;BME280;65232;48.358;2.122;2023-06-10T01:30:14;100233.84;;;18.69;77.79
76404;BME280;65232;48.358;2.122;2023-06-10T01:31:46;100234.91;;;18.74;77.38
76404;BME280;65232;48.358;2.122;2023-06-10T01:32:31;100235.22;;;18.86;76.88
76404;BME280;65232;48.358;2.122;2023-06-10T01:32:59;100231.63;;;18.79;77.38
76404;BME280;65232;48.358;2.122;2023-06-10T01:33:27;100228.28;;;18.77;77.36
76404;BME280;65232;48.358;2.122;2023-06-10T01:33:55;100232.16;;;18.67;77.88
76404;BME280;65232;48.358;2.122;2023-06-10T01:34:23;100228.81;;;18.51;78.67
76404;BME280;65232;48.358;2.122;2023-06-10T01:34:50;100229.66;;;18.51;78.96
76404;BME280;65232;48.358;2.122;2023-06-10T01:35:17;100226.66;;;18.61;78.50
76404;BME280;65232;48.358;2.122;2023-06-10T01:35:43;100226.47;;;18.62;78.52
76404;BME280;65232;48.358;2.122;2023-06-10T01:36:09;100229.84;;;18.64;78.46
76404;BME280;65232;48.358;2.122;2023-06-10T01:36:36;100234.22;;;18.65;77.89
76404;BME280;65232;48.358;2.122;2023-06-10T01:37:03;100230.34;;;18.75;77.57
76404;BME280;65232;48.358;2.122;2023-06-10T01:37:31;100228.63;;;18.67;77.56
76404;BME280;65232;48.358;2.122;2023-06-10T01:37:58;100227.16;;;18.71;77.37
76404;BME280;65232;48.358;2.122;2023-06-10T01:38:26;100224.22;;;18.66;77.47
76404;BME280;65232;48.358;2.122;2023-06-10T01:38:53;100226.47;;;18.62;77.60
76404;BME280;65232;48.358;2.122;2023-06-10T01:39:23;100227.88;;;18.58;77.34
76404;BME280;65232;48.358;2.122;2023-06-10T01:39:49;100237.50;;;18.61;77.56
76404;BME280;65232;48.358;2.122;2023-06-10T01:40:15;100232.53;;;18.64;77.52
76404;BME280;65232;48.358;2.122;2023-06-10T01:40:42;100228.22;;;18.55;77.51
76404;BME280;65232;48.358;2.122;2023-06-10T01:41:09;100236.16;;;18.57;77.98
76404;BME280;65232;48.358;2.122;2023-06-10T01:41:36;100232.28;;;18.59;77.40
76404;BME280;65232;48.358;2.122;2023-06-10T01:42:03;100234.28;;;18.57;77.33
76404;BME280;65232;48.358;2.122;2023-06-10T01:42:29;100233.59;;;18.49;77.64
76404;BME280;65232;48.358;2.122;2023-06-10T01:42:56;100237.91;;;18.43;77.76
76404;BME280;65232;48.358;2.122;2023-06-10T01:43:21;100234.81;;;18.46;77.77
76404;BME280;65232;48.358;2.122;2023-06-10T01:43:47;100237.91;;;18.43;77.74
76404;BME280;65232;48.358;2.122;2023-06-10T01:44:18;100236.41;;;18.41;77.67
76404;BME280;65232;48.358;2.122;2023-06-10T01:44:43;100232.84;;;18.40;77.74
76404;BME280;65232;48.358;2.122;2023-06-10T01:45:09;100241.22;;;18.39;77.96
76404;BME280;65232;48.358;2.122;2023-06-10T01:45:34;100232.44;;;18.37;77.96
76404;BME280;65232;48.358;2.122;2023-06-10T01:46:00;100236.22;;;18.42;77.92
76404;BME280;65232;48.358;2.122;2023-06-10T01:46:25;100233.06;;;18.39;78.25
76404;BME280;65232;48.358;2.122;2023-06-10T01:46:51;100239.34;;;18.39;78.19
76404;BME280;65232;48.358;2.122;2023-06-10T01:47:16;100239.97;;;18.41;78.13
76404;BME280;65232;48.358;2.122;2023-06-10T01:47:42;100241.22;;;18.39;78.17
76404;BME280;65232;48.358;2.122;2023-06-10T01:48:08;100238.03;;;18.35;78.32
76404;BME280;65232;48.358;2.122;2023-06-10T01:48:33;100234.09;;;18.38;78.62
76404;BME280;65232;48.358;2.122;2023-06-10T01:48:59;100234.28;;;18.36;78.23
76404;BME280;65232;48.358;2.122;2023-06-10T01:49:25;100235.78;;;18.39;78.57
76404;BME280;65232;48.358;2.122;2023-06-10T01:49:51;100241.81;;;18.41;78.20
76404;BME280;65232;48.358;2.122;2023-06-10T01:50:17;100237.41;;;18.54;77.88
76404;BME280;65232;48.358;2.122;2023-06-10T01:50:42;100230.41;;;18.60;77.59
76404;BME280;65232;48.358;2.122;2023-06-10T01:51:09;100233.66;;;18.55;77.90
76404;BME280;65232;48.358;2.122;2023-06-10T01:51:35;100235.47;;;18.48;78.07
76404;BME280;65232;48.358;2.122;2023-06-10T01:52:01;100242.09;;;18.46;78.45
76404;BME280;65232;48.358;2.122;2023-06-10T01:52:26;100230.75;;;18.36;78.88
76404;BME280;65232;48.358;2.122;2023-06-10T01:52:53;100230.84;;;18.27;78.98
76404;BME280;65232;48.358;2.122;2023-06-10T01:53:19;100230.59;;;18.22;78.89
76404;BME280;65232;48.358;2.122;2023-06-10T01:53:45;100236.25;;;18.27;78.88
76404;BME280;65232;48.358;2.122;2023-06-10T01:54:11;100233.22;;;18.16;79.41
76404;BME280;65232;48.358;2.122;2023-06-10T01:54:36;100230.31;;;18.17;79.56
76404;BME280;65232;48.358;2.122;2023-06-10T01:55:02;100228.13;;;18.27;78.99
76404;BME280;65232;48.358;2.122;2023-06-10T01:55:27;100232.28;;;18.23;79.24
76404;BME280;65232;48.358;2.122;2023-06-10T01:55:53;100231.16;;;18.18;79.67
76404;BME280;65232;48.358;2.122;2023-06-10T01:56:18;100235.63;;;18.11;79.67
76404;BME280;65232;48.358;2.122;2023-06-10T01:56:45;100236.47;;;18.11;79.97
76404;BME280;65232;48.358;2.122;2023-06-10T01:57:10;100235.03;;;18.09;80.13
76404;BME280;65232;48.358;2.122;2023-06-10T01:57:36;100240.34;;;18.02;80.00
76404;BME280;65232;48.358;2.122;2023-06-10T01:58:02;100229.69;;;18.01;80.11
76404;BME280;65232;48.358;2.122;2023-06-10T01:58:28;100231.84;;;18.05;79.99
76404;BME280;65232;48.358;2.122;2023-06-10T01:58:53;100230.34;;;18.03;80.09
76404;BME280;65232;48.358;2.122;2023-06-10T01:59:24;100236.13;;;18.00;80.46
76404;BME280;65232;48.358;2.122;2023-06-10T01:59:49;100237.16;;;17.98;80.21
76404;BME280;65232;48.358;2.122;2023-06-10T02:00:15;100230.63;;;18.08;80.06
76404;BME280;65232;48.358;2.122;2023-06-10T02:00:40;100233.63;;;17.98;80.21
76404;BME280;65232;48.358;2.122;2023-06-10T02:01:07;100231.94;;;17.97;80.18
76404;BME280;65232;48.358;2.122;2023-06-10T02:01:33;100234.25;;;18.00;80.36
76404;BME280;65232;48.358;2.122;2023-06-10T02:01:58;100239.69;;;18.00;80.30
76404;BME280;65232;48.358;2.122;2023-06-10T02:02:24;100229.03;;;17.98;79.95
76404;BME280;65232;48.358;2.122;2023-06-10T02:02:50;100233.91;;;18.03;80.01
76404;BME280;65232;48.358;2.122;2023-06-10T02:03:15;100233.44;;;18.00;80.01
76404;BME280;65232;48.358;2.122;2023-06-10T02:03:41;100231.84;;;18.05;nan
76404;BME280;65232;48.358;2.122;2023-06-10T02:04:08;100238.09;;;18.06;79.93
76404;BME280;65232;48.358;2.122;2023-06-10T02:04:33;100235.56;;;18.04;80.10
76404;BME280;65232;48.358;2.122;2023-06-10T02:05:01;100241.19;;;18.03;80.16
76404;BME280;65232;48.358;2.122;2023-06-10T02:05:26;100233.91;;;18.03;79.87
76404;BME280;65232;48.358;2.122;2023-06-10T02:05:52;100237.63;;;18.02;80.24
76404;BME280;65232;48.358;2.122;2023-06-10T02:06:17;100237.63;;;18.02;79.96
76404;BME280;65232;48.358;2.122;2023-06-10T02:06:43;100235.75;;;18.03;80.02
76404;BME280;65232;48.358;2.122;2023-06-10T02:07:08;100241.91;;;18.11;79.87
76404;BME280;65232;48.358;2.122;2023-06-10T02:07:34;100233.69;;;18.19;79.49
76404;BME280;65232;48.358;2.122;2023-06-10T02:07:59;100232.28;;;18.23;79.40
76404;BME280;65232;48.358;2.122;2023-06-10T02:08:25;100227.59;;;18.17;79.05
76404;BME280;65232;48.358;2.122;2023-06-10T02:08:52;100242.47;;;18.21;79.58
76404;BME280;65232;48.358;2.122;2023-06-10T02:09:18;100233.50;;;18.21;79.58
76404;BME280;65232;48.358;2.122;2023-06-10T02:09:44;100235.91;;;18.16;79.32
76404;BME280;65232;48.358;2.122;2023-06-10T02:10:09;100231.66;;;18.07;79.60
76404;BME280;65232;48.358;2.122;2023-06-10T02:10:35;100233.16;;;17.94;80.53
76404;BME280;65232;48.358;2.122;2023-06-10T02:11:00;100230.25;;;17.96;80.46
76404;BME280;65232;48.358;2.122;2023-06-10T02:11:28;100235.19;;;18.07;80.06
76404;BME280;65232;48.358;2.122;2023-06-10T02:11:54;100233.53;;;18.06;80.09
76404;BME280;65232;48.358;2.122;2023-06-10T02:12:19;100236.28;;;18.13;79.53
76404;BME280;65232;48.358;2.122;2023-06-10T02:12:44;100232.31;;;18.09;79.69
76404;BME280;65232;48.358;2.122;2023-06-10T02:13:10;100239.66;;;18.15;79.56
76404;BME280;65232;48.358;2.122;2023-06-10T02:13:35;100233.03;;;18.17;79.59
76404;BME280;65232;48.358;2.122;2023-06-10T02:14:01;100232.19;;;18.17;79.44
76404;BME280;65232;48.358;2.122;2023-06-10T02:14:26;100235.63;;;18.11;79.75
76404;BME280;65232;48.358;2.122;2023-06-10T02:14:52;100239.78;;;18.07;79.81
76404;BME280;65232;48.358;2.122;2023-06-10T02:15:17;100228.75;;;18.08;79.86
76404;BME280;65232;48.358;2.122;2023-06-10T02:15:45;100232.88;;;18.04;80.29
76404;BME280;65232;48.358;2.122;2023-06-10T02:16:11;100224.66;;;17.97;80.34
76404;BME280;65232;48.358;2.122;2023-06-10T02:16:37;100235.03;;;17.94;80.53
76404;BME280;65232;48.358;2.122;2023-06-10T02:17:04;100230.66;;;17.93;80.53
76404;BME280;65232;48.358;2.122;2023-06-10T02:17:30;100229.44;;;17.95;80.24
76404;BME280;65232;48.358;2.122;2023-06-10T02:17:55;100234.84;;;17.95;80.34
76404;BME280;65232;48.358;2.122;2023-06-10T02:18:21;100232.94;;;17.96;80.34
76404;BME280;65232;48.358;2.122;2023-06-10T02:18:47;100235.66;;;17.96;80.58
76404;BME280;65232;48.358;2.122;2023-06-10T02:19:13;100238.19;;;17.97;80.23
76404;BME280;65232;48.358;2.122;2023-06-10T02:19:39;100240.34;;;18.02;80.39
76404;BME280;65232;48.358;2.122;2023-06-10T02:20:08;100234.25;;;18.00;80.08
76404;BME280;65232;48.358;2.122;2023-06-10T02:20:36;100235.47;;;17.97;80.29
76404;BME280;65232;48.358;2.122;2023-06-10T02:21:02;100242.56;;;18.13;79.70
76404;BME280;65232;48.358;2.122;2023-06-10T02:21:58;100238.28;;;18.04;80.02
76404;BME280;65232;48.358;2.122;2023-06-10T02:22:23;100229.88;;;17.99;80.26
76404;BME280;65232;48.358;2.122;2023-06-10T02:22:48;100239.31;;;18.03;80.05
76404;BME280;65232;48.358;2.122;2023-06-10T02:23:14;100235.03;;;17.94;80.55
76404;BME280;65232;48.358;2.122;2023-06-10T02:23:40;100241.84;;;17.90;80.96
76404;BME280;65232;48.358;2.122;2023-06-10T02:24:06;100238.13;;;17.91;80.67
76404;BME280;65232;48.358;2.122;2023-06-10T02:24:31;100238.38;;;17.96;80.48